Time;durP1;ratioP1;P1;durP2;ratioP2;P2;SDS_P1;SDS_P2;PMS_P1;PMS_P2;Temp;Humidity;BMP_temperature;BMP_pressure;BME280_temperature;BME280_humidity;BME280_pressure;Samples;Min_cycle;Max_cycle;Signal;HPM_P1;HPM_P2
2024/01/09 00:01:17;;;;;;;6.28;3.00;;;;;;;;;;5033707;28;20612;-78
2024/01/09 00:03:44;;;;;;;3.83;2.33;;;;;;;;;;5013279;28;20793;-79
2024/01/09 00:06:16;;;;;;;5.65;2.83;;;;;;;;;;5026949;28;20061;-81
2024/01/09 00:08:42;;;;;;;5.25;2.17;;;;;;;;;;5015559;28;20026;-78
2024/01/09 00:11:08;;;;;;;7.00;2.13;;;;;;;;;;5034565;28;20028;-79
2024/01/09 00:13:34;;;;;;;5.28;2.33;;;;;;;;;;5016470;28;20378;-80
2024/01/09 00:16:00;;;;;;;6.78;2.78;;;;;;;;;;5021991;28;20100;-78
2024/01/09 00:18:26;;;;;;;6.30;2.63;;;;;;;;;;5019295;28;20033;-79
2024/01/09 00:20:54;;;;;;;3.38;2.20;;;;;;;;;;5039539;28;20167;-79
2024/01/09 00:23:20;;;;;;;5.32;3.25;;;;;;;;;;5009302;28;20107;-78
2024/01/09 00:25:46;;;;;;;5.13;2.45;;;;;;;;;;5037763;28;20033;-78
2024/01/09 00:28:12;;;;;;;3.20;2.10;;;;;;;;;;5013865;28;20040;-79
2024/01/09 00:30:38;;;;;;;4.88;2.28;;;;;;;;;;5021508;28;20060;-79
2024/01/09 00:33:04;;;;;;;5.82;3.58;;;;;;;;;;5026335;28;20161;-79
2024/01/09 00:35:30;;;;;;;4.07;2.13;;;;;;;;;;5027597;28;20031;-79
2024/01/09 00:37:56;;;;;;;6.32;3.13;;;;;;;;;;5028195;28;20037;-80
2024/01/09 00:40:22;;;;;;;6.63;2.75;;;;;;;;;;5013912;28;20021;-82
2024/01/09 00:42:48;;;;;;;5.22;2.63;;;;;;;;;;5037202;28;20047;-79
2024/01/09 00:45:14;;;;;;;8.30;3.13;;;;;;;;;;5014134;28;20033;-79
2024/01/09 00:47:41;;;;;;;4.78;2.53;;;;;;;;;;5007278;28;23072;-79
2024/01/09 00:50:07;;;;;;;5.55;2.38;;;;;;;;;;5014112;28;20025;-79
2024/01/09 00:52:33;;;;;;;3.80;2.10;;;;;;;;;;5031481;28;20049;-79
2024/01/09 00:54:59;;;;;;;6.30;2.40;;;;;;;;;;5034835;28;20104;-79
2024/01/09 00:57:25;;;;;;;6.22;2.45;;;;;;;;;;5011380;28;20040;-81
2024/01/09 00:59:51;;;;;;;6.25;3.17;;;;;;;;;;5018050;28;20037;-81
2024/01/09 01:02:17;;;;;;;5.70;2.30;;;;;;;;;;5030110;28;20044;-80
2024/01/09 01:04:43;;;;;;;6.85;2.40;;;;;;;;;;5025002;28;20033;-79
2024/01/09 01:07:09;;;;;;;5.38;2.67;;;;;;;;;;5021405;28;20052;-78
2024/01/09 01:09:35;;;;;;;7.35;2.90;;;;;;;;;;5016579;28;20034;-79
2024/01/09 01:12:01;;;;;;;4.97;2.47;;;;;;;;;;5040705;28;20029;-79
2024/01/09 01:14:27;;;;;;;9.32;2.55;;;;;;;;;;5021894;28;20025;-79
2024/01/09 01:16:53;;;;;;;7.05;2.58;;;;;;;;;;5042056;28;20037;-78
2024/01/09 01:19:19;;;;;;;4.93;2.85;;;;;;;;;;5014085;28;20026;-78
2024/01/09 01:21:46;;;;;;;6.00;2.65;;;;;;;;;;5025877;28;20159;-77
2024/01/09 01:24:12;;;;;;;5.95;2.60;;;;;;;;;;5014628;28;20036;-77
2024/01/09 01:26:38;;;;;;;9.30;2.72;;;;;;;;;;5011837;28;20040;-78
2024/01/09 01:29:04;;;;;;;7.93;3.33;;;;;;;;;;5023710;28;20038;-79
2024/01/09 01:31:30;;;;;;;6.70;3.30;;;;;;;;;;5018136;28;20065;-77
2024/01/09 01:33:56;;;;;;;6.57;2.92;;;;;;;;;;5020405;28;20451;-79
2024/01/09 01:36:23;;;;;;;7.35;2.63;;;;;;;;;;5033070;28;20063;-77
2024/01/09 01:38:49;;;;;;;6.35;2.72;;;;;;;;;;5014775;28;20049;-79
2024/01/09 01:41:15;;;;;;;6.88;2.90;;;;;;;;;;5016960;28;20357;-79
2024/01/09 01:43:41;;;;;;;6.20;2.90;;;;;;;;;;5030998;28;20030;-79
2024/01/09 01:46:07;;;;;;;9.27;3.55;;;;;;;;;;5026550;28;20088;-79
2024/01/09 01:48:33;;;;;;;5.53;2.60;;;;;;;;;;5028690;28;20041;-78
2024/01/09 01:51:00;;;;;;;5.30;2.70;;;;;;;;;;5024394;28;20033;-80
2024/01/09 01:53:27;;;;;;;5.07;2.58;;;;;;;;;;5025763;28;20044;-77
2024/01/09 01:55:53;;;;;;;5.60;2.90;;;;;;;;;;5032397;28;20124;-77
2024/01/09 01:58:19;;;;;;;6.20;2.38;;;;;;;;;;5037626;28;20038;-79
2024/01/09 02:00:46;;;;;;;5.97;2.60;;;;;;;;;;5019323;28;20030;-77
2024/01/09 02:03:14;;;;;;;4.95;3.03;;;;;;;;;;5037268;28;20352;-78
2024/01/09 02:05:40;;;;;;;5.18;2.97;;;;;;;;;;5013645;28;20109;-78
2024/01/09 02:08:06;;;;;;;5.10;2.45;;;;;;;;;;5021372;28;20049;-78
2024/01/09 02:10:32;;;;;;;6.00;2.60;;;;;;;;;;5022636;28;20033;-77
2024/01/09 02:12:58;;;;;;;4.10;2.20;;;;;;;;;;5027698;28;20033;-78
2024/01/09 02:15:24;;;;;;;5.65;2.60;;;;;;;;;;5027054;28;20080;-78
2024/01/09 02:17:50;;;;;;;9.80;2.95;;;;;;;;;;5026395;28;20042;-78
2024/01/09 02:20:21;;;;;;;5.85;2.63;;;;;;;;;;5014052;28;20701;-78
2024/01/09 02:22:47;;;;;;;7.05;3.75;;;;;;;;;;5022090;28;20538;-78
2024/01/09 02:25:13;;;;;;;5.05;2.95;;;;;;;;;;5031508;28;20463;-78
2024/01/09 02:27:50;;;;;;;5.35;2.30;;;;;;;;;;5018092;28;20574;-78
2024/01/09 02:30:17;;;;;;;7.00;2.85;;;;;;;;;;5027358;28;20041;-78
2024/01/09 02:32:44;;;;;;;5.60;2.95;;;;;;;;;;5015870;28;20199;-78
2024/01/09 02:35:10;;;;;;;8.13;3.00;;;;;;;;;;5013224;28;20036;-79
2024/01/09 02:37:36;;;;;;;14.18;2.90;;;;;;;;;;5014194;28;20033;-79
2024/01/09 02:40:03;;;;;;;5.63;2.33;;;;;;;;;;5031967;28;20430;-78
2024/01/09 02:42:29;;;;;;;5.75;2.80;;;;;;;;;;5020513;28;20490;-79
2024/01/09 02:44:55;;;;;;;5.70;2.63;;;;;;;;;;5012550;28;20034;-79
2024/01/09 02:47:25;;;;;;;6.18;2.50;;;;;;;;;;5021453;28;20644;-80
2024/01/09 02:49:51;;;;;;;6.22;2.70;;;;;;;;;;5029983;28;20029;-78
2024/01/09 02:52:17;;;;;;;5.00;2.30;;;;;;;;;;5010895;28;20030;-79
2024/01/09 02:54:43;;;;;;;3.90;2.30;;;;;;;;;;5015113;28;20034;-78
2024/01/09 02:57:10;;;;;;;5.20;2.33;;;;;;;;;;5015095;28;20025;-78
2024/01/09 02:59:36;;;;;;;7.45;2.35;;;;;;;;;;5016117;28;20030;-79
2024/01/09 03:02:02;;;;;;;8.13;2.50;;;;;;;;;;5020150;28;20037;-78
2024/01/09 03:04:28;;;;;;;7.03;3.20;;;;;;;;;;5016041;28;20471;-78
2024/01/09 03:06:54;;;;;;;6.55;2.38;;;;;;;;;;5012383;28;20077;-79
2024/01/09 03:09:20;;;;;;;6.40;3.08;;;;;;;;;;5011631;28;20044;-79
2024/01/09 03:11:47;;;;;;;5.80;2.50;;;;;;;;;;5023410;28;20036;-78
2024/01/09 03:14:13;;;;;;;3.92;2.40;;;;;;;;;;5011459;28;20038;-78
2024/01/09 03:16:39;;;;;;;4.20;2.60;;;;;;;;;;5019486;28;20487;-78
2024/01/09 03:19:05;;;;;;;5.47;2.47;;;;;;;;;;5016684;28;20099;-78
2024/01/09 03:21:31;;;;;;;6.30;2.38;;;;;;;;;;5020166;28;20040;-78
2024/01/09 03:23:57;;;;;;;9.75;2.90;;;;;;;;;;5021728;28;20041;-78
2024/01/09 03:26:23;;;;;;;5.30;2.38;;;;;;;;;;5023739;28;20410;-79
2024/01/09 03:28:50;;;;;;;3.92;2.55;;;;;;;;;;5028372;28;20037;-78
2024/01/09 03:31:23;;;;;;;8.43;3.70;;;;;;;;;;5035901;28;20029;-79
2024/01/09 03:33:49;;;;;;;7.00;3.05;;;;;;;;;;5030816;28;20088;-78
2024/01/09 03:36:15;;;;;;;4.25;2.30;;;;;;;;;;5011691;28;20030;-79
2024/01/09 03:38:42;;;;;;;6.68;2.85;;;;;;;;;;5013407;28;20909;-79
2024/01/09 03:41:08;;;;;;;5.43;2.13;;;;;;;;;;5026283;28;20040;-78
2024/01/09 03:43:34;;;;;;;4.47;2.35;;;;;;;;;;5016749;28;20120;-78
2024/01/09 03:46:00;;;;;;;5.57;2.58;;;;;;;;;;5019924;28;20475;-78
2024/01/09 03:48:26;;;;;;;3.20;2.05;;;;;;;;;;5019054;28;20034;-78
2024/01/09 03:50:52;;;;;;;5.82;2.53;;;;;;;;;;5013758;28;20034;-77
2024/01/09 03:53:18;;;;;;;4.25;2.53;;;;;;;;;;5011346;28;20068;-78
2024/01/09 03:55:45;;;;;;;4.53;2.40;;;;;;;;;;5040320;28;20387;-78
2024/01/09 03:58:11;;;;;;;15.18;2.67;;;;;;;;;;5030040;28;20113;-79
2024/01/09 04:00:38;;;;;;;4.55;2.38;;;;;;;;;;5042053;28;20084;-78
2024/01/09 04:03:04;;;;;;;3.38;2.20;;;;;;;;;;5020451;28;20436;-78
2024/01/09 04:05:30;;;;;;;4.35;2.08;;;;;;;;;;5010150;28;20060;-77
2024/01/09 04:07:56;;;;;;;5.90;2.55;;;;;;;;;;5013150;28;20053;-78
2024/01/09 04:10:22;;;;;;;7.97;2.58;;;;;;;;;;5011021;28;20463;-79
2024/01/09 04:12:48;;;;;;;5.57;2.40;;;;;;;;;;5010425;28;20510;-78
2024/01/09 04:15:14;;;;;;;6.93;2.65;;;;;;;;;;5012767;28;20494;-78
2024/01/09 04:17:40;;;;;;;6.97;2.30;;;;;;;;;;5013938;28;20116;-77
2024/01/09 04:20:08;;;;;;;7.22;2.28;;;;;;;;;;5020615;28;20038;-78
2024/01/09 04:22:34;;;;;;;9.52;2.53;;;;;;;;;;5019809;28;20044;-78
2024/01/09 04:25:00;;;;;;;79.93;33.72;;;;;;;;;;5016959;28;20030;-78
2024/01/09 04:27:26;;;;;;;6.38;3.38;;;;;;;;;;5020848;28;20045;-80
2024/01/09 04:29:52;;;;;;;8.95;3.00;;;;;;;;;;5029824;28;20029;-78
2024/01/09 04:32:18;;;;;;;8.27;2.72;;;;;;;;;;5019852;28;20029;-77
2024/01/09 04:34:44;;;;;;;6.55;2.20;;;;;;;;;;5011338;28;20522;-77
2024/01/09 04:37:10;;;;;;;6.18;3.03;;;;;;;;;;5014663;28;20049;-80
2024/01/09 04:39:36;;;;;;;3.70;2.10;;;;;;;;;;5029587;28;20044;-78
2024/01/09 04:42:02;;;;;;;5.28;1.95;;;;;;;;;;5024300;28;20117;-78
2024/01/09 04:44:28;;;;;;;8.15;2.15;;;;;;;;;;5011789;28;20018;-78
2024/01/09 04:46:54;;;;;;;4.35;2.53;;;;;;;;;;5021828;28;20029;-78
2024/01/09 04:49:20;;;;;;;5.78;3.08;;;;;;;;;;5022014;28;20033;-77
2024/01/09 04:51:47;;;;;;;7.20;2.97;;;;;;;;;;5019373;28;20026;-78
2024/01/09 04:54:13;;;;;;;5.35;2.63;;;;;;;;;;5012554;28;20533;-77
2024/01/09 04:56:39;;;;;;;4.97;2.63;;;;;;;;;;5012172;28;20022;-78
2024/01/09 04:59:05;;;;;;;5.22;2.75;;;;;;;;;;5011865;28;20041;-78
2024/01/09 05:01:31;;;;;;;3.78;2.45;;;;;;;;;;5017886;28;20041;-78
2024/01/09 05:03:57;;;;;;;2.78;2.17;;;;;;;;;;5008133;28;20475;-81
2024/01/09 05:06:23;;;;;;;6.90;2.88;;;;;;;;;;5020159;28;20049;-80
2024/01/09 05:08:49;;;;;;;8.13;2.38;;;;;;;;;;5008333;28;20100;-79
2024/01/09 05:11:15;;;;;;;5.32;3.38;;;;;;;;;;5012512;28;20037;-80
2024/01/09 05:13:41;;;;;;;4.57;2.63;;;;;;;;;;5017104;28;20028;-78
2024/01/09 05:16:07;;;;;;;4.57;2.20;;;;;;;;;;5010428;28;20045;-80
2024/01/09 05:18:33;;;;;;;12.90;6.10;;;;;;;;;;5014790;28;20026;-80
2024/01/09 05:20:59;;;;;;;5.05;3.03;;;;;;;;;;5013779;28;20033;-78
2024/01/09 05:23:25;;;;;;;11.00;3.10;;;;;;;;;;5011802;28;20018;-78
2024/01/09 05:25:51;;;;;;;6.28;2.88;;;;;;;;;;5011528;28;20030;-78
2024/01/09 05:28:18;;;;;;;6.50;2.72;;;;;;;;;;5029443;28;20536;-79
2024/01/09 05:30:44;;;;;;;6.65;2.63;;;;;;;;;;5010988;28;20040;-78
2024/01/09 05:33:10;;;;;;;4.53;2.22;;;;;;;;;;5008592;28;20030;-78
2024/01/09 05:35:36;;;;;;;5.15;2.63;;;;;;;;;;5027407;28;20423;-78
2024/01/09 05:38:02;;;;;;;5.43;2.58;;;;;;;;;;5024351;28;20034;-78
2024/01/09 05:40:28;;;;;;;5.72;2.97;;;;;;;;;;5009283;28;20038;-79
2024/01/09 05:42:54;;;;;;;3.60;2.58;;;;;;;;;;5013538;28;20033;-79
2024/01/09 05:45:20;;;;;;;4.03;2.33;;;;;;;;;;5011529;28;20026;-79
2024/01/09 05:47:46;;;;;;;6.45;3.20;;;;;;;;;;5008726;28;20041;-79
2024/01/09 05:50:12;;;;;;;7.28;2.65;;;;;;;;;;5009381;28;20026;-78
2024/01/09 05:52:38;;;;;;;7.65;3.00;;;;;;;;;;5011249;28;20487;-78
2024/01/09 05:55:05;;;;;;;3.92;2.33;;;;;;;;;;5009267;28;20026;-78
2024/01/09 05:57:31;;;;;;;5.45;2.78;;;;;;;;;;5026825;28;20034;-78
2024/01/09 05:59:58;;;;;;;6.15;2.65;;;;;;;;;;5008338;28;20112;-79
2024/01/09 06:02:24;;;;;;;4.45;2.47;;;;;;;;;;5008255;28;20029;-79
2024/01/09 06:04:50;;;;;;;5.10;2.55;;;;;;;;;;5008680;28;20037;-79
2024/01/09 06:07:17;;;;;;;3.95;2.38;;;;;;;;;;5007994;28;20081;-79
2024/01/09 06:09:43;;;;;;;4.78;2.88;;;;;;;;;;5008818;28;20049;-79
2024/01/09 06:12:09;;;;;;;4.53;2.40;;;;;;;;;;5009980;28;20688;-78
2024/01/09 06:14:35;;;;;;;4.78;2.47;;;;;;;;;;5027052;28;20021;-77
2024/01/09 06:17:02;;;;;;;5.38;2.60;;;;;;;;;;5013348;28;20030;-78
2024/01/09 06:19:28;;;;;;;5.28;2.50;;;;;;;;;;5012253;28;20463;-78
2024/01/09 06:21:54;;;;;;;5.88;2.33;;;;;;;;;;5012065;28;20598;-78
2024/01/09 06:24:21;;;;;;;6.18;2.60;;;;;;;;;;5011994;28;20495;-78
2024/01/09 06:26:47;;;;;;;4.22;2.33;;;;;;;;;;5009869;28;20045;-79
2024/01/09 06:29:13;;;;;;;4.93;2.33;;;;;;;;;;5007905;28;20034;-78
2024/01/09 06:31:40;;;;;;;4.05;2.28;;;;;;;;;;5017946;28;20025;-78
2024/01/09 06:34:07;;;;;;;4.07;2.33;;;;;;;;;;5012448;28;20025;-79
2024/01/09 06:36:33;;;;;;;8.23;2.75;;;;;;;;;;5011675;28;20028;-78
2024/01/09 06:38:59;;;;;;;5.00;2.70;;;;;;;;;;5016347;28;20033;-79
2024/01/09 06:41:25;;;;;;;6.43;3.22;;;;;;;;;;5013020;28;20051;-78
2024/01/09 06:43:51;;;;;;;9.18;3.13;;;;;;;;;;5015547;28;20029;-78
2024/01/09 06:46:17;;;;;;;8.23;2.80;;;;;;;;;;5015131;28;20072;-78
2024/01/09 06:48:43;;;;;;;7.95;3.00;;;;;;;;;;5012604;28;20475;-79
2024/01/09 06:51:11;;;;;;;5.63;2.75;;;;;;;;;;5011137;28;20030;-78
2024/01/09 06:53:37;;;;;;;3.70;2.22;;;;;;;;;;5017355;28;20034;-78
2024/01/09 06:56:04;;;;;;;5.60;2.45;;;;;;;;;;5010841;28;20113;-78
2024/01/09 06:58:30;;;;;;;4.20;2.60;;;;;;;;;;5013652;28;20042;-78
2024/01/09 07:00:56;;;;;;;6.80;2.95;;;;;;;;;;5015028;28;20052;-78
2024/01/09 07:03:23;;;;;;;7.28;4.10;;;;;;;;;;5012892;28;20072;-78
2024/01/09 07:05:49;;;;;;;4.53;2.28;;;;;;;;;;5030825;28;20029;-78
2024/01/09 07:08:15;;;;;;;6.72;3.90;;;;;;;;;;5016999;28;20034;-78
2024/01/09 07:10:41;;;;;;;10.32;3.00;;;;;;;;;;5012713;28;20049;-78
2024/01/09 07:13:07;;;;;;;6.95;2.85;;;;;;;;;;5012382;28;20061;-78
2024/01/09 07:15:33;;;;;;;7.47;2.60;;;;;;;;;;5010596;28;20018;-78
2024/01/09 07:17:59;;;;;;;6.13;2.70;;;;;;;;;;5012253;28;20038;-78
2024/01/09 07:20:25;;;;;;;8.00;3.42;;;;;;;;;;5018183;28;20037;-78
2024/01/09 07:22:51;;;;;;;4.85;2.60;;;;;;;;;;5027945;28;20412;-79
2024/01/09 07:25:17;;;;;;;5.88;2.58;;;;;;;;;;5011706;28;20057;-79
2024/01/09 07:27:43;;;;;;;3.50;2.45;;;;;;;;;;5012431;28;20037;-78
2024/01/09 07:30:10;;;;;;;5.85;2.38;;;;;;;;;;5012508;28;20373;-78
2024/01/09 07:32:36;;;;;;;5.05;2.67;;;;;;;;;;5013637;28;20030;-78
2024/01/09 07:35:04;;;;;;;5.95;3.10;;;;;;;;;;5013158;28;20037;-78
2024/01/09 07:37:30;;;;;;;4.93;2.80;;;;;;;;;;5011101;28;20427;-78
2024/01/09 07:39:56;;;;;;;4.70;2.67;;;;;;;;;;5014696;28;21150;-78
2024/01/09 07:42:22;;;;;;;5.90;2.63;;;;;;;;;;5010106;28;20562;-79
2024/01/09 07:44:48;;;;;;;5.18;3.10;;;;;;;;;;5025626;28;20484;-78
2024/01/09 07:47:14;;;;;;;6.20;3.55;;;;;;;;;;5014283;28;20029;-79
2024/01/09 07:49:40;;;;;;;5.75;3.03;;;;;;;;;;5010359;28;20045;-78
2024/01/09 07:52:06;;;;;;;6.50;3.47;;;;;;;;;;5009919;28;20150;-79
2024/01/09 07:54:32;;;;;;;5.90;2.35;;;;;;;;;;5000780;28;20030;-78
2024/01/09 07:56:58;;;;;;;5.10;2.70;;;;;;;;;;5012697;28;20033;-78
2024/01/09 07:59:24;;;;;;;4.47;2.50;;;;;;;;;;5017471;28;20033;-77
2024/01/09 08:01:54;;;;;;;6.38;3.22;;;;;;;;;;5013914;28;20104;-77
2024/01/09 08:04:20;;;;;;;3.97;2.20;;;;;;;;;;5011929;28;20084;-77
2024/01/09 08:06:46;;;;;;;4.53;2.65;;;;;;;;;;5016984;28;20057;-80
2024/01/09 08:09:13;;;;;;;4.03;2.40;;;;;;;;;;5015388;28;20050;-77
2024/01/09 08:11:39;;;;;;;3.53;2.35;;;;;;;;;;5020734;28;20030;-79
2024/01/09 08:14:05;;;;;;;5.68;2.25;;;;;;;;;;5032068;28;20033;-79
2024/01/09 08:16:31;;;;;;;5.70;2.80;;;;;;;;;;5011331;28;20462;-81
2024/01/09 08:18:57;;;;;;;14.65;5.80;;;;;;;;;;5027561;28;20558;-76
2024/01/09 08:21:23;;;;;;;8.70;4.10;;;;;;;;;;5015789;28;20400;-79
2024/01/09 08:23:49;;;;;;;7.88;3.35;;;;;;;;;;5030659;28;20121;-80
2024/01/09 08:26:15;;;;;;;5.15;2.60;;;;;;;;;;5019542;28;20037;-80
2024/01/09 08:28:41;;;;;;;7.75;2.80;;;;;;;;;;5021781;28;20076;-81
2024/01/09 08:31:08;;;;;;;4.55;2.40;;;;;;;;;;5016867;28;20264;-81
2024/01/09 08:33:34;;;;;;;3.70;2.53;;;;;;;;;;5013719;28;20034;-80
2024/01/09 08:36:00;;;;;;;7.75;3.25;;;;;;;;;;5022451;28;20030;-79
2024/01/09 08:38:26;;;;;;;3.72;2.42;;;;;;;;;;5015639;28;20065;-80
2024/01/09 08:40:55;;;;;;;7.32;2.97;;;;;;;;;;5018093;28;20029;-81
2024/01/09 08:43:21;;;;;;;4.75;2.90;;;;;;;;;;5030669;28;20052;-80
2024/01/09 08:45:49;;;;;;;6.22;2.70;;;;;;;;;;5029861;28;20038;-80
2024/01/09 08:48:15;;;;;;;6.80;2.75;;;;;;;;;;5030503;28;20032;-80
2024/01/09 08:50:41;;;;;;;6.20;3.53;;;;;;;;;;5029364;28;20029;-78
2024/01/09 08:53:08;;;;;;;4.85;2.42;;;;;;;;;;5026761;28;20029;-78
2024/01/09 08:55:34;;;;;;;6.43;2.90;;;;;;;;;;5009450;28;20427;-79
2024/01/09 08:58:00;;;;;;;6.13;2.75;;;;;;;;;;5010312;28;20380;-80
2024/01/09 09:00:27;;;;;;;4.32;2.30;;;;;;;;;;5012744;28;20044;-80
2024/01/09 09:02:53;;;;;;;5.15;2.42;;;;;;;;;;5028251;28;20029;-81
2024/01/09 09:05:19;;;;;;;4.00;2.30;;;;;;;;;;5028131;28;20033;-81
2024/01/09 09:07:45;;;;;;;8.20;3.17;;;;;;;;;;5026227;28;20052;-81
2024/01/09 09:10:11;;;;;;;4.93;2.72;;;;;;;;;;5028994;28;20037;-80
2024/01/09 09:12:37;;;;;;;4.57;2.13;;;;;;;;;;5004670;28;20408;-81
2024/01/09 09:15:03;;;;;;;4.95;3.15;;;;;;;;;;4998652;28;20460;-82
2024/01/09 09:17:30;;;;;;;5.15;2.20;;;;;;;;;;5010464;28;20080;-82
2024/01/09 09:19:57;;;;;;;4.03;2.50;;;;;;;;;;5014004;28;20818;-81
2024/01/09 09:22:25;;;;;;;6.32;3.63;;;;;;;;;;5008000;28;20033;-81
2024/01/09 09:24:52;;;;;;;10.45;5.50;;;;;;;;;;5010382;28;20040;-81
2024/01/09 09:27:18;;;;;;;4.38;2.50;;;;;;;;;;5005301;28;22002;-82
2024/01/09 09:29:44;;;;;;;5.55;2.30;;;;;;;;;;5008988;28;20034;-81
2024/01/09 09:32:10;;;;;;;5.97;2.30;;;;;;;;;;5011978;28;20050;-81
2024/01/09 09:34:38;;;;;;;5.75;2.53;;;;;;;;;;5015878;28;20034;-82
2024/01/09 09:37:04;;;;;;;6.47;2.83;;;;;;;;;;5011054;28;20029;-81
2024/01/09 09:39:30;;;;;;;4.75;2.63;;;;;;;;;;5007466;28;20053;-81
2024/01/09 09:42:00;;;;;;;4.45;2.33;;;;;;;;;;5012176;28;20065;-81
2024/01/09 09:44:26;;;;;;;14.93;6.13;;;;;;;;;;5010920;28;20091;-78
2024/01/09 09:46:53;;;;;;;10.00;5.13;;;;;;;;;;5010887;28;20091;-81
2024/01/09 09:49:24;;;;;;;4.63;2.50;;;;;;;;;;5007552;28;20033;-80
2024/01/09 09:51:51;;;;;;;4.97;2.38;;;;;;;;;;5012273;28;20056;-81
2024/01/09 09:54:18;;;;;;;5.35;2.13;;;;;;;;;;5009770;28;20030;-81
2024/01/09 09:56:45;;;;;;;4.93;3.03;;;;;;;;;;5007728;28;20097;-82
2024/01/09 09:59:11;;;;;;;7.03;2.65;;;;;;;;;;5012330;28;20692;-82
2024/01/09 10:01:38;;;;;;;6.00;2.70;;;;;;;;;;5013759;28;20038;-83
2024/01/09 10:04:14;;;;;;;5.38;2.42;;;;;;;;;;5007376;28;20081;-83
2024/01/09 10:06:42;;;;;;;4.43;2.53;;;;;;;;;;5013257;28;20549;-82
2024/01/09 10:09:10;;;;;;;21.38;10.13;;;;;;;;;;5026723;28;20045;-81
2024/01/09 10:11:36;;;;;;;13.40;6.65;;;;;;;;;;5012424;28;20045;-82
2024/01/09 10:14:02;;;;;;;9.43;3.78;;;;;;;;;;5030710;28;20037;-84
2024/01/09 10:16:28;;;;;;;3.70;2.13;;;;;;;;;;5015243;28;20021;-84
2024/01/09 10:18:55;;;;;;;5.07;2.40;;;;;;;;;;5024286;28;20033;-83
2024/01/09 10:21:22;;;;;;;4.80;2.60;;;;;;;;;;5020600;28;20053;-82
2024/01/09 10:23:49;;;;;;;2.85;1.63;;;;;;;;;;5025270;28;20045;-84
2024/01/09 10:26:15;;;;;;;4.55;2.38;;;;;;;;;;5016885;28;20431;-84
2024/01/09 10:28:41;;;;;;;9.52;2.33;;;;;;;;;;5021707;28;20065;-82
2024/01/09 10:31:08;;;;;;;8.73;2.20;;;;;;;;;;5017585;28;20038;-82
2024/01/09 10:33:38;;;;;;;5.95;2.10;;;;;;;;;;5016036;28;20031;-81
2024/01/09 10:36:04;;;;;;;4.75;2.38;;;;;;;;;;5017655;28;20117;-80
2024/01/09 10:38:32;;;;;;;4.68;2.90;;;;;;;;;;5029057;28;20021;-81
2024/01/09 10:40:58;;;;;;;3.45;2.10;;;;;;;;;;5031024;28;20845;-84
2024/01/09 10:43:25;;;;;;;5.00;2.45;;;;;;;;;;5035510;28;20040;-81
2024/01/09 10:45:52;;;;;;;8.75;2.55;;;;;;;;;;5020900;28;20060;-82
2024/01/09 10:48:21;;;;;;;6.70;3.65;;;;;;;;;;5024560;28;20101;-83
2024/01/09 10:50:48;;;;;;;9.45;5.10;;;;;;;;;;5013261;28;20026;-83
2024/01/09 10:53:15;;;;;;;5.93;3.40;;;;;;;;;;5024968;28;20103;-81
2024/01/09 10:55:42;;;;;;;4.97;2.80;;;;;;;;;;5021059;28;20080;-82
2024/01/09 10:58:10;;;;;;;4.22;3.08;;;;;;;;;;5033189;28;20033;-81
2024/01/09 11:00:36;;;;;;;5.07;2.22;;;;;;;;;;5045161;28;20047;-81
2024/01/09 11:03:02;;;;;;;4.70;2.25;;;;;;;;;;5017020;28;20103;-80
2024/01/09 11:05:29;;;;;;;5.65;2.13;;;;;;;;;;5025939;28;20113;-81
2024/01/09 11:07:56;;;;;;;2.95;1.80;;;;;;;;;;5018227;28;20057;-81
2024/01/09 11:10:22;;;;;;;5.45;2.28;;;;;;;;;;5029792;28;20036;-84
2024/01/09 11:12:52;;;;;;;9.68;5.22;;;;;;;;;;5018532;28;20030;-80
2024/01/09 11:15:21;;;;;;;15.57;8.27;;;;;;;;;;5029792;28;20097;-82
2024/01/09 11:17:49;;;;;;;4.55;2.25;;;;;;;;;;5019310;28;20041;-81
2024/01/09 11:20:19;;;;;;;2.85;1.92;;;;;;;;;;5013631;28;20048;-84
2024/01/09 11:22:45;;;;;;;4.47;2.50;;;;;;;;;;5018879;28;20116;-87
2024/01/09 11:25:17;;;;;;;4.68;1.88;;;;;;;;;;5014878;28;20036;-84
2024/01/09 11:27:47;;;;;;;5.38;2.35;;;;;;;;;;5010807;28;20408;-84
2024/01/09 11:30:16;;;;;;;3.20;1.92;;;;;;;;;;5012630;28;20036;-81
2024/01/09 11:32:42;;;;;;;5.57;2.13;;;;;;;;;;5013865;28;20029;-83
2024/01/09 11:35:13;;;;;;;3.10;2.20;;;;;;;;;;5019901;28;20060;-78
2024/01/09 11:37:40;;;;;;;4.18;2.03;;;;;;;;;;5012142;28;20386;-82
2024/01/09 11:40:11;;;;;;;5.10;2.20;;;;;;;;;;5037710;28;20069;-79
2024/01/09 11:42:38;;;;;;;3.58;2.20;;;;;;;;;;5027081;28;20045;-84
2024/01/09 11:45:05;;;;;;;3.28;1.58;;;;;;;;;;5013992;28;20054;-82
2024/01/09 11:47:31;;;;;;;2.22;1.48;;;;;;;;;;5012205;28;20037;-82
2024/01/09 11:49:58;;;;;;;3.72;2.55;;;;;;;;;;5012661;28;20030;-78
2024/01/09 11:52:26;;;;;;;4.35;2.75;;;;;;;;;;5013017;28;20041;-79
2024/01/09 11:54:53;;;;;;;8.45;3.78;;;;;;;;;;5019606;28;20029;-77
2024/01/09 11:57:19;;;;;;;2.53;1.70;;;;;;;;;;5017053;28;20722;-79
2024/01/09 11:59:48;;;;;;;5.55;2.40;;;;;;;;;;5009286;28;20038;-80
2024/01/09 12:02:14;;;;;;;3.65;1.77;;;;;;;;;;5010411;28;20132;-80
2024/01/09 12:04:42;;;;;;;3.55;2.08;;;;;;;;;;5028983;28;20029;-79
2024/01/09 12:07:08;;;;;;;3.28;1.98;;;;;;;;;;5016254;28;20057;-81
2024/01/09 12:09:34;;;;;;;2.17;1.48;;;;;;;;;;5013019;28;20079;-80
2024/01/09 12:12:00;;;;;;;3.00;2.00;;;;;;;;;;5015370;28;20058;-81
2024/01/09 12:14:27;;;;;;;2.60;1.63;;;;;;;;;;5010992;28;20405;-81
2024/01/09 12:16:53;;;;;;;4.90;2.30;;;;;;;;;;5024928;28;20769;-83
2024/01/09 12:19:19;;;;;;;3.63;1.83;;;;;;;;;;5030407;28;20689;-81
2024/01/09 12:21:46;;;;;;;2.47;1.52;;;;;;;;;;5028879;28;20041;-80
2024/01/09 12:24:12;;;;;;;2.42;1.70;;;;;;;;;;5030153;28;20037;-80
2024/01/09 12:26:38;;;;;;;3.25;2.00;;;;;;;;;;5026316;28;20548;-81
2024/01/09 12:29:05;;;;;;;3.65;2.03;;;;;;;;;;5013512;28;20036;-78
2024/01/09 12:31:31;;;;;;;3.38;1.80;;;;;;;;;;5011762;28;20041;-81
2024/01/09 12:33:58;;;;;;;4.55;1.80;;;;;;;;;;5009380;28;20108;-80
2024/01/09 12:36:25;;;;;;;2.38;1.45;;;;;;;;;;5008927;28;20049;-81
2024/01/09 12:38:52;;;;;;;2.53;1.08;;;;;;;;;;5012445;28;20040;-81
2024/01/09 12:41:21;;;;;;;3.30;1.70;;;;;;;;;;5008633;28;20113;-81
2024/01/09 12:43:47;;;;;;;4.53;1.48;;;;;;;;;;5011932;28;20037;-80
2024/01/09 12:46:13;;;;;;;2.65;1.67;;;;;;;;;;5009666;28;20034;-78
2024/01/09 12:48:43;;;;;;;4.03;1.52;;;;;;;;;;5014573;28;20046;-79
2024/01/09 12:51:09;;;;;;;5.38;1.52;;;;;;;;;;5011941;28;20113;-78
2024/01/09 12:53:36;;;;;;;2.08;1.52;;;;;;;;;;5018471;28;20042;-80
2024/01/09 12:56:05;;;;;;;3.78;1.52;;;;;;;;;;5011063;28;20028;-80
2024/01/09 12:58:32;;;;;;;2.60;1.30;;;;;;;;;;5012272;28;20466;-79
2024/01/09 13:00:58;;;;;;;7.72;1.33;;;;;;;;;;5027216;28;20040;-80
2024/01/09 13:03:24;;;;;;;1.63;1.20;;;;;;;;;;5029390;28;20029;-79
2024/01/09 13:05:53;;;;;;;2.75;1.83;;;;;;;;;;5027641;28;20021;-79
2024/01/09 13:08:19;;;;;;;4.40;1.60;;;;;;;;;;5027889;28;20045;-79
2024/01/09 13:10:45;;;;;;;3.40;1.48;;;;;;;;;;5029312;28;20590;-79
2024/01/09 13:13:11;;;;;;;2.13;1.42;;;;;;;;;;5011543;28;20479;-79
2024/01/09 13:15:37;;;;;;;2.42;1.17;;;;;;;;;;5027526;28;20483;-80
2024/01/09 13:18:03;;;;;;;1.92;1.33;;;;;;;;;;5040341;28;20034;-79
2024/01/09 13:20:29;;;;;;;2.80;1.48;;;;;;;;;;5009127;28;20042;-80
2024/01/09 13:22:55;;;;;;;4.28;1.70;;;;;;;;;;5025608;28;20036;-79
2024/01/09 13:25:21;;;;;;;2.03;1.42;;;;;;;;;;5027209;28;20033;-79
2024/01/09 13:27:49;;;;;;;5.22;2.97;;;;;;;;;;5028313;28;20488;-80
2024/01/09 13:30:16;;;;;;;2.65;1.80;;;;;;;;;;5026508;28;20036;-79
2024/01/09 13:32:42;;;;;;;2.42;1.40;;;;;;;;;;5027372;28;20490;-78
2024/01/09 13:35:09;;;;;;;2.70;1.52;;;;;;;;;;5023618;28;20047;-78
2024/01/09 13:37:35;;;;;;;1.88;1.42;;;;;;;;;;5019461;28;20025;-79
2024/01/09 13:40:02;;;;;;;2.22;1.40;;;;;;;;;;5023856;28;20037;-79
2024/01/09 13:42:30;;;;;;;1.98;1.35;;;;;;;;;;5028951;28;20025;-79
2024/01/09 13:44:56;;;;;;;2.13;1.50;;;;;;;;;;5017147;28;20022;-79
2024/01/09 13:47:24;;;;;;;2.58;1.40;;;;;;;;;;5026072;28;20033;-80
2024/01/09 13:49:50;;;;;;;2.20;1.50;;;;;;;;;;5020871;28;20040;-80
2024/01/09 13:52:16;;;;;;;3.28;1.42;;;;;;;;;;5024775;28;20033;-79
2024/01/09 13:54:42;;;;;;;2.13;1.67;;;;;;;;;;5028628;28;20063;-79
2024/01/09 13:57:11;;;;;;;2.15;1.45;;;;;;;;;;5028673;28;20027;-79
2024/01/09 13:59:39;;;;;;;2.03;1.45;;;;;;;;;;5017815;28;20041;-79
2024/01/09 14:02:06;;;;;;;2.10;1.55;;;;;;;;;;5031658;28;20383;-79
2024/01/09 14:04:32;;;;;;;5.63;1.58;;;;;;;;;;5010893;28;20505;-79
2024/01/09 14:06:58;;;;;;;4.38;1.35;;;;;;;;;;5025130;28;20085;-79
2024/01/09 14:09:25;;;;;;;1.58;1.25;;;;;;;;;;5029708;28;20044;-80
2024/01/09 14:11:51;;;;;;;2.10;1.50;;;;;;;;;;5027300;28;20017;-79
2024/01/09 14:14:20;;;;;;;5.68;1.27;;;;;;;;;;5025518;28;20084;-79
2024/01/09 14:16:46;;;;;;;3.28;1.40;;;;;;;;;;5024080;28;20063;-79
2024/01/09 14:19:12;;;;;;;2.15;1.35;;;;;;;;;;5026773;28;20036;-79
2024/01/09 14:21:38;;;;;;;3.70;1.63;;;;;;;;;;5023153;28;20045;-79
2024/01/09 14:24:04;;;;;;;5.68;1.63;;;;;;;;;;5008671;28;20025;-79
2024/01/09 14:26:31;;;;;;;2.50;1.55;;;;;;;;;;5021381;28;20072;-79
2024/01/09 14:28:57;;;;;;;4.07;1.38;;;;;;;;;;5009056;28;20395;-79
2024/01/09 14:31:23;;;;;;;2.30;1.58;;;;;;;;;;5018916;28;20036;-79
2024/01/09 14:33:49;;;;;;;3.28;1.45;;;;;;;;;;5027633;28;20033;-79
2024/01/09 14:36:15;;;;;;;1.60;1.27;;;;;;;;;;5025142;28;20422;-79
2024/01/09 14:38:42;;;;;;;3.50;1.50;;;;;;;;;;5043212;28;20025;-79